Terminal Aerodrome Forecast
Issued by NWS

Home | Current Version | Previous Version | Text Only | Print | Product List | Glossary On
Versions: 1 2 3 4 5 6 7 8 9 10 11 12 13 14 15 16 17 18 19 20
000
FTUS43 KLSX 240200 AAB
TAFUIN
TAF AMD
KUIN 240253Z 2403/2424 21007KT 2SM BR OVC005
      TEMPO 2403/2405 1/2SM FG VV003
     FM240500 28010KT 3SM -RA BR OVC008
     FM240900 30020G30KT 4SM -RASN OVC010
     FM241400 28020G30KT P6SM OVC015=

USA.gov is the U.S. government's official web portal to all federal, state and local government web resources and services.